Aeroporto :
LOGIN :

Iscrizione | Disclaimer

   EN    FR    IT 

 










Sommario :    VFR   VFR Marginale   IFR   IFR Intensivo   IFR Molto Intensivo
Visibilità : 
Base nubi : 
>= 8 km
>= 3000ft
5 / 8 km
1000 / 3000 ft
1500m / 5 km
500 / 1000 ft
800 / 1500m
200 / 500 ft
< 800m
< 200 ft
Simboli :   Temporali  Nebbia  Neve Forte  Precipitazioni Forti  Vento > 20 kt
SIGMETs :   Varie  Temporali  Ghiacco  Turbolenza  Onda orograficha  Ceneri Vulcaniche






- Altitudine del aeroporto : 670 ft
- Codice IATA : MSQ


UMMS - Minsk - 2

ULTIMO METAR :
  • 231800Z 22005MPS CAVOK 03/M01 Q0998 R88/D NOSIG

METARs OBSOLETI :
  • 231730Z 24004MPS CAVOK 03/M02 Q0998 R88/D NOSIG
  • 231700Z 26005G08MPS CAVOK 04/M02 Q0999 R88/D NOSIG
  • 231630Z 25005MPS CAVOK 04/M02 Q0999 R88/CLRD// NOSIG
  • 231600Z 25006G10MPS CAVOK 04/M01 Q0999 R88/CLRD// NOSIG
  • 231530Z 24005G09MPS 9999 BKN043 04/M02 Q0999 R88/D NOSIG
  • 231500Z 25004G07MPS 9999 BKN040 04/M02 Q0999 R88/D NOSIG

TAF TAF UMMS
Valido dal 23 a 18 ore il 24 a 18 ore UTC


231702Z 2318/2418 25005G10MPS 9999 BKN008 TX06/2412Z TNM01/2403Z
TEMPO 2318/2406 23008G13MPS 1200 SHSNRA BR BKN003 SCT012CB
TEMPO 2406/2418 28009G14MPS 2100 -SHRA BKN004 BKN013CB



MetMap, La meteo Aeronautica in un colpo d'occhio ! - Copyright ORBIFLY Dicembre 2007 - Disclaimer

ORBIFLY MET'MAP TEAM :

Programmazione e sviluppo : Alexandra Zaïnal
Concezione : Baudouin d'Aumeries
Aiuto per la programmazione : Marc-Olivier Méhu
Supporto tecnico e logistico : Manuel Goepfert
Aiuto per la traduzione : Arnaldo La Scala

Contatto : metmap@orbifly.com




FONTI E CREDITI :

   NOAA